createdAt,value
2019-05-10T00:01:21.998Z,1.50
2019-05-10T00:06:42.274Z,1.73
2019-05-10T00:11:49.170Z,1.63
2019-05-10T00:16:52.043Z,1.60
2019-05-10T00:21:54.405Z,1.53
2019-05-10T00:26:56.688Z,1.40
2019-05-10T00:31:59.550Z,1.80
2019-05-10T00:37:01.871Z,2.03
2019-05-10T00:42:04.207Z,2.03
2019-05-10T00:47:06.473Z,1.63
2019-05-10T00:52:08.838Z,1.50
2019-05-10T00:57:11.115Z,1.73
2019-05-10T01:02:13.396Z,1.80
2019-05-10T01:07:15.949Z,1.80
2019-05-10T01:12:18.223Z,1.37
2019-05-10T01:17:20.491Z,1.60
2019-05-10T01:22:22.785Z,1.37
2019-05-10T01:27:25.054Z,1.40
2019-05-10T01:32:27.338Z,1.60
2019-05-10T01:37:29.854Z,1.73
2019-05-10T01:42:32.140Z,1.70
2019-05-10T01:47:34.406Z,1.70
2019-05-10T01:52:36.681Z,1.70
2019-05-10T01:57:38.969Z,1.90
2019-05-10T02:02:41.309Z,1.70
2019-05-10T02:07:43.565Z,1.70
2019-05-10T02:12:45.845Z,2.00
2019-05-10T02:17:48.124Z,1.63
2019-05-10T02:22:50.402Z,1.80
2019-05-10T02:27:52.735Z,1.70
2019-05-10T02:32:55.044Z,1.60
2019-05-10T02:37:57.320Z,1.50
2019-05-10T02:43:01.280Z,1.63
2019-05-10T02:48:03.583Z,1.60
2019-05-10T02:53:05.905Z,1.40
2019-05-10T02:58:08.270Z,1.93
2019-05-10T03:03:31.675Z,1.67
2019-05-10T03:08:47.438Z,1.50
2019-05-10T03:13:50.987Z,1.70
2019-05-10T03:18:53.515Z,1.50
2019-05-10T03:23:55.834Z,2.07
2019-05-10T03:28:58.106Z,1.83
2019-05-10T03:34:00.367Z,2.10
2019-05-10T03:39:03.167Z,1.90
2019-05-10T03:44:05.431Z,1.90
2019-05-10T03:49:07.697Z,1.87
2019-05-10T03:54:09.977Z,2.10
2019-05-10T03:59:12.275Z,2.10
2019-05-10T04:04:14.562Z,2.20
2019-05-10T04:09:16.828Z,2.33
2019-05-10T04:14:19.095Z,2.23
2019-05-10T04:19:21.431Z,2.27
2019-05-10T04:24:23.720Z,3.30
2019-05-10T04:29:27.536Z,2.17
2019-05-10T04:34:29.883Z,2.47
2019-05-10T04:39:32.161Z,2.60
2019-05-10T04:44:34.454Z,2.03
2019-05-10T04:49:36.747Z,2.13
2019-05-10T04:54:38.999Z,1.97
2019-05-10T04:59:41.360Z,1.83
2019-05-10T05:04:43.644Z,1.57
2019-05-10T05:09:45.916Z,1.90
2019-05-10T05:14:48.614Z,2.07
2019-05-10T05:19:50.886Z,2.07
2019-05-10T05:24:55.301Z,2.20
2019-05-10T05:29:57.189Z,2.30
2019-05-10T05:34:59.775Z,1.80
2019-05-10T05:40:02.089Z,1.80
2019-05-10T05:45:05.622Z,2.20
2019-05-10T05:50:08.420Z,2.27
2019-05-10T05:55:10.712Z,2.93
2019-05-10T06:00:13.149Z,2.23
2019-05-10T06:05:32.217Z,1.77
2019-05-10T06:10:19.955Z,2.02
2019-05-10T06:15:23.198Z,1.82
2019-05-10T06:20:26.529Z,1.85
2019-05-10T06:25:39.646Z,2.58
2019-05-10T06:30:32.861Z,1.90
2019-05-10T06:35:35.429Z,1.50
2019-05-10T06:40:46.487Z,2.60
2019-05-10T06:45:46.680Z,2.08
2019-05-10T06:50:45.795Z,2.12
2019-05-10T06:55:48.484Z,2.00
2019-05-10T07:00:50.764Z,2.10
2019-05-10T07:05:53.276Z,2.17
2019-05-10T07:10:55.626Z,1.60
2019-05-10T07:15:57.900Z,1.77
2019-05-10T07:21:01.066Z,1.98
2019-05-10T07:26:04.183Z,2.25
2019-05-10T07:31:06.664Z,2.25
2019-05-10T07:36:14.918Z,3.30
2019-05-10T07:41:13.019Z,2.25
2019-05-10T07:46:15.308Z,2.22
2019-05-10T07:51:22.726Z,2.22
2019-05-10T07:56:22.095Z,1.87
2019-05-10T08:01:32.483Z,1.82
2019-05-10T08:06:33.873Z,1.87
2019-05-10T08:11:32.654Z,1.77
2019-05-10T08:16:34.941Z,2.00
2019-05-10T08:21:37.180Z,2.15
2019-05-10T08:26:39.780Z,1.90
2019-05-10T08:31:49.058Z,2.05
2019-05-10T08:36:47.805Z,2.17
2019-05-10T08:42:03.701Z,2.30
2019-05-10T08:46:54.288Z,1.72
2019-05-10T08:51:56.575Z,1.90
2019-05-10T08:57:01.829Z,2.12
2019-05-10T09:02:04.115Z,2.55
2019-05-10T09:07:06.483Z,2.55
2019-05-10T09:12:09.365Z,2.45
2019-05-10T09:17:14.863Z,2.27
2019-05-10T09:22:16.425Z,2.75
2019-05-10T09:27:18.689Z,4.65
2019-05-10T09:32:28.681Z,2.52
2019-05-10T09:37:24.953Z,2.45
2019-05-10T09:42:35.083Z,3.00
2019-05-10T09:47:32.986Z,2.55
2019-05-10T09:52:35.439Z,2.25
2019-05-10T09:57:38.106Z,2.70
2019-05-10T10:02:40.879Z,2.22
2019-05-10T10:07:43.333Z,2.70
2019-05-10T10:12:47.561Z,2.83
2019-05-10T10:17:49.860Z,2.80
2019-05-10T10:22:54.475Z,2.50
2019-05-10T10:27:57.444Z,3.08
2019-05-10T10:32:59.865Z,2.50
2019-05-10T10:38:03.115Z,2.40
2019-05-10T10:43:07.456Z,2.50
2019-05-10T10:48:12.826Z,2.42
2019-05-10T10:53:13.976Z,2.42
2019-05-10T10:58:18.567Z,2.30
2019-05-10T11:03:23.796Z,2.22
2019-05-10T11:08:24.789Z,2.60
2019-05-10T11:13:41.398Z,2.83
2019-05-10T11:18:31.880Z,2.00
2019-05-10T11:23:39.150Z,2.00
2019-05-10T11:28:43.540Z,2.52
2019-05-10T11:33:47.544Z,2.12
2019-05-10T11:38:46.944Z,2.55
2019-05-10T11:43:50.714Z,2.58
2019-05-10T11:48:53.781Z,2.20
2019-05-10T11:53:59.698Z,2.08
2019-05-10T11:59:02.478Z,2.53
2019-05-10T12:04:05.105Z,2.50
2019-05-10T12:09:07.614Z,2.63
2019-05-10T12:14:13.800Z,2.17
2019-05-10T12:19:19.805Z,1.80
2019-05-10T12:26:18.428Z,1.80
2019-05-10T12:29:21.913Z,2.07
2019-05-10T12:34:24.190Z,1.70
2019-05-10T12:39:26.500Z,1.80
2019-05-10T12:44:32.930Z,1.55
2019-05-10T12:49:36.155Z,1.50
2019-05-10T12:54:36.804Z,1.47
2019-05-10T12:59:39.105Z,1.64
2019-05-10T13:04:41.429Z,1.35
2019-05-10T13:09:43.757Z,1.25
2019-05-10T13:14:51.944Z,1.20
2019-05-10T13:19:52.690Z,1.60
2019-05-10T13:24:54.809Z,1.70
2019-05-10T13:29:57.067Z,2.02
2019-05-10T13:34:59.347Z,1.90
2019-05-10T13:40:05.660Z,1.90
2019-05-10T13:45:05.920Z,1.52
2019-05-10T13:50:08.354Z,1.40
2019-05-10T13:55:10.800Z,1.87
2019-05-10T14:00:13.121Z,2.20
2019-05-10T14:05:17.693Z,1.70
2019-05-10T14:10:23.867Z,1.90
2019-05-10T14:15:23.516Z,1.70
2019-05-10T14:20:27.635Z,1.70
2019-05-10T14:25:36.429Z,2.10
2019-05-10T14:30:33.895Z,1.80
2019-05-10T14:35:36.440Z,1.80
2019-05-10T14:40:38.714Z,1.73
2019-05-10T14:45:40.995Z,1.67
2019-05-10T14:50:46.430Z,1.50
2019-05-10T14:55:47.397Z,1.50
2019-05-10T15:00:49.700Z,2.00
2019-05-10T15:05:55.641Z,1.50
2019-05-10T15:10:57.336Z,1.42
2019-05-10T15:15:59.903Z,1.62
2019-05-10T15:21:02.353Z,2.12
2019-05-10T15:26:11.722Z,4.53
2019-05-10T15:31:08.793Z,1.90
2019-05-10T15:36:11.178Z,2.70
2019-05-10T15:41:16.864Z,1.37
2019-05-10T15:46:17.520Z,1.30
2019-05-10T15:51:34.890Z,1.55
2019-05-10T15:56:23.962Z,1.60
2019-05-10T16:01:26.897Z,1.60
2019-05-10T16:06:32.451Z,3.00
2019-05-10T16:11:34.494Z,2.10
2019-05-10T16:16:39.556Z,1.57
2019-05-10T16:21:40.955Z,8.25
2019-05-10T16:26:43.320Z,1.80
2019-05-10T16:31:45.603Z,1.55
2019-05-10T16:36:47.901Z,1.77
2019-05-10T16:41:50.495Z,1.67
2019-05-10T16:46:52.773Z,1.60
2019-05-10T16:51:55.514Z,1.50
2019-05-10T16:56:59.930Z,1.90
2019-05-10T17:02:04.431Z,1.40
2019-05-10T17:07:05.849Z,1.42
2019-05-10T17:12:08.136Z,2.60
2019-05-10T17:17:10.410Z,1.47
2019-05-10T17:22:12.730Z,1.65
2019-05-10T17:27:15.017Z,1.92
2019-05-10T17:32:18.718Z,4.10
2019-05-10T17:37:21.294Z,4.50
2019-05-10T17:42:23.590Z,1.72
2019-05-10T17:47:27.198Z,2.12
2019-05-10T17:52:30.005Z,1.90
2019-05-10T17:57:32.569Z,1.70
2019-05-10T18:02:34.892Z,2.00
2019-05-10T18:07:37.167Z,2.50
2019-05-10T18:12:39.539Z,3.25
2019-05-10T18:17:41.831Z,4.05
2019-05-10T18:22:45.305Z,4.10
2019-05-10T18:27:47.789Z,4.80
2019-05-10T18:32:50.121Z,3.20
2019-05-10T18:37:53.580Z,2.17
2019-05-10T18:42:57.809Z,1.90
2019-05-10T18:48:00.925Z,2.22
2019-05-10T18:53:03.855Z,2.15
2019-05-10T18:58:06.482Z,1.98
2019-05-10T19:03:09.319Z,2.02
2019-05-10T19:08:12.157Z,2.38
2019-05-10T19:13:15.243Z,2.22
2019-05-10T19:18:23.380Z,2.67
2019-05-10T19:23:22.227Z,5.47
2019-05-10T19:28:26.826Z,2.67
2019-05-10T19:33:36.357Z,2.80
2019-05-10T19:38:35.089Z,2.70
2019-05-10T19:43:37.367Z,3.70
2019-05-10T19:48:39.705Z,3.62
2019-05-10T19:53:43.911Z,2.60
2019-05-10T19:58:49.233Z,2.87
2019-05-10T20:03:51.480Z,2.92
2019-05-10T20:08:53.867Z,3.40
2019-05-10T20:13:56.434Z,3.25
2019-05-10T20:18:59.058Z,3.02
2019-05-10T20:24:01.353Z,5.35
2019-05-10T20:29:03.699Z,7.00
2019-05-10T20:34:06.502Z,7.95
2019-05-10T20:39:09.441Z,7.95
2019-05-10T20:44:12.009Z,6.97
2019-05-10T20:49:14.604Z,6.00
2019-05-10T20:54:17.035Z,5.10
2019-05-10T20:59:19.387Z,3.72
2019-05-10T21:04:21.674Z,4.17
2019-05-10T21:09:24.073Z,4.40
2019-05-10T21:14:26.353Z,4.83
2019-05-10T21:19:28.665Z,4.58
2019-05-10T21:24:30.943Z,4.42
2019-05-10T21:29:33.532Z,4.90
2019-05-10T21:34:35.944Z,4.30
2019-05-10T21:39:38.316Z,6.15
2019-05-10T21:44:40.715Z,5.58
2019-05-10T21:49:42.983Z,5.20
2019-05-10T21:54:45.353Z,4.95
2019-05-10T21:59:47.918Z,4.75
2019-05-10T22:04:50.308Z,4.70
2019-05-10T22:09:52.621Z,4.67
2019-05-10T22:14:54.904Z,6.55
2019-05-10T22:19:57.207Z,5.35
2019-05-10T22:24:59.571Z,5.37
2019-05-10T22:30:01.810Z,4.75
2019-05-10T22:35:04.770Z,5.15
2019-05-10T22:40:07.139Z,4.68
2019-05-10T22:45:09.508Z,4.90
2019-05-10T22:50:11.995Z,5.17
2019-05-10T22:55:14.829Z,5.50
2019-05-10T23:00:17.263Z,5.30
2019-05-10T23:05:19.547Z,4.20
2019-05-10T23:10:21.887Z,7.08
2019-05-10T23:15:24.151Z,4.58
2019-05-10T23:20:26.452Z,4.62
2019-05-10T23:25:28.711Z,5.20
2019-05-10T23:30:30.997Z,4.77
2019-05-10T23:35:33.309Z,4.67
2019-05-10T23:40:35.589Z,4.53
2019-05-10T23:45:37.882Z,4.93
2019-05-10T23:50:40.173Z,4.00
2019-05-10T23:55:42.464Z,4.35
